Time;durP1;ratioP1;P1;durP2;ratioP2;P2;SDS_P1;SDS_P2;PMS_P1;PMS_P2;Temp;Humidity;BMP_temperature;BMP_pressure;BME280_temperature;BME280_humidity;BME280_pressure;Samples;Min_cycle;Max_cycle;Signal;HPM_P1;HPM_P2
2023/08/22 00:00:24;;;;;;;5.97;4.50;;;22.80;99.90;;;;;;5229145;28;20197;-68
2023/08/22 00:02:58;;;;;;;6.82;4.78;;;22.80;99.90;;;;;;5187543;28;20090;-68
2023/08/22 00:05:30;;;;;;;5.15;3.95;;;22.70;99.90;;;;;;5199381;28;20215;-68
2023/08/22 00:08:11;;;;;;;5.25;4.70;;;22.70;99.90;;;;;;5203049;28;20037;-68
2023/08/22 00:10:45;;;;;;;5.93;3.97;;;22.70;99.90;;;;;;5184596;28;20052;-67
2023/08/22 00:13:19;;;;;;;7.53;4.70;;;22.70;99.90;;;;;;5179887;28;20043;-67
2023/08/22 00:15:58;;;;;;;5.82;4.25;;;22.70;99.90;;;;;;5180846;28;20041;-68
2023/08/22 00:18:30;;;;;;;5.35;4.22;;;22.60;99.90;;;;;;5186001;28;20053;-68
2023/08/22 00:21:04;;;;;;;6.57;4.50;;;22.50;99.90;;;;;;5201318;28;20055;-67
2023/08/22 00:23:38;;;;;;;8.85;4.30;;;22.40;99.90;;;;;;5210308;28;20181;-68
2023/08/22 00:26:09;;;;;;;;;;;22.40;99.90;;;;;;5183397;28;20047;-66
2023/08/22 00:28:43;;;;;;;5.80;3.83;;;22.30;99.90;;;;;;5176726;28;19929;-67
2023/08/22 00:31:18;;;;;;;6.57;3.47;;;22.30;99.90;;;;;;5192417;28;20072;-67
2023/08/22 00:34:01;;;;;;;5.45;4.43;;;22.20;1.00;;;;;;5180784;28;20029;-69
2023/08/22 00:36:35;;;;;;;5.57;4.05;;;22.20;1.00;;;;;;5180496;28;20385;-67
2023/08/22 00:39:12;;;;;;;5.05;4.03;;;22.20;1.00;;;;;;5203936;28;20349;-69
2023/08/22 00:41:45;;;;;;;5.47;3.95;;;22.10;1.00;;;;;;5195049;28;20426;-68
2023/08/22 00:44:24;;;;;;;4.90;3.67;;;22.10;1.00;;;;;;5191250;28;20052;-67
2023/08/22 00:47:04;;;;;;;5.30;4.60;;;22.00;1.00;;;;;;5180915;28;20034;-67
2023/08/22 00:49:45;;;;;;;6.28;4.32;;;22.00;1.00;;;;;;5187915;28;20063;-68
2023/08/22 00:52:19;;;;;;;4.78;4.07;;;21.90;1.00;;;;;;5182705;28;20058;-67
2023/08/22 00:54:56;;;;;;;5.90;4.10;;;21.80;1.00;;;;;;5198552;28;20158;-68
2023/08/22 00:57:32;;;;;;;4.78;4.28;;;21.70;1.00;;;;;;5174573;28;20048;-67
2023/08/22 01:00:10;;;;;;;7.38;5.43;;;21.70;1.00;;;;;;5199341;28;20037;-68
2023/08/22 01:02:44;;;;;;;7.88;4.43;;;21.60;1.00;;;;;;5237799;23;20041;-68
2023/08/22 01:05:18;;;;;;;5.65;4.40;;;21.60;1.00;;;;;;5158586;28;20049;-68
2023/08/22 01:08:01;;;;;;;5.45;4.32;;;21.70;1.00;;;;;;5175605;28;20037;-68
2023/08/22 01:10:41;;;;;;;5.53;4.75;;;21.60;1.00;;;;;;5148947;28;20048;-71
2023/08/22 01:13:28;;;;;;;5.00;3.97;;;21.60;1.00;;;;;;5189716;28;20052;-66
2023/08/22 01:16:05;;;;;;;4.78;3.95;;;21.60;1.00;;;;;;5192197;28;20033;-66
2023/08/22 01:18:43;;;;;;;7.65;4.45;;;21.50;1.00;;;;;;5176213;28;20514;-67
2023/08/22 01:21:21;;;;;;;5.05;4.07;;;21.50;1.00;;;;;;5198473;28;20045;-68
2023/08/22 01:23:52;;;;;;;5.75;4.88;;;21.60;1.00;;;;;;5195760;28;20044;-67
2023/08/22 01:26:27;;;;;;;5.72;5.10;;;21.60;1.00;;;;;;5182251;28;20044;-67
2023/08/22 01:29:18;;;;;;;4.40;3.97;;;21.60;1.00;;;;;;5198203;28;20025;-66
2023/08/22 01:32:06;;;;;;;4.72;3.85;;;21.60;1.00;;;;;;5174782;28;20333;-68
2023/08/22 01:34:42;;;;;;;4.78;3.78;;;21.60;1.00;;;;;;5179019;28;20037;-68
2023/08/22 01:37:14;;;;;;;5.13;4.13;;;21.60;1.00;;;;;;5195618;28;20038;-70
2023/08/22 01:39:49;;;;;;;6.20;4.78;;;21.60;1.00;;;;;;5164504;28;20046;-67
2023/08/22 01:42:23;;;;;;;5.60;4.18;;;21.60;1.00;;;;;;5171973;28;20046;-67
2023/08/22 01:44:56;;;;;;;5.55;4.53;;;21.50;1.00;;;;;;5197559;28;20045;-66
2023/08/22 01:47:43;;;;;;;5.68;4.53;;;21.50;1.00;;;;;;5172620;28;20529;-67
2023/08/22 01:50:24;;;;;;;5.60;4.43;;;21.40;1.00;;;;;;5201844;28;20371;-68
2023/08/22 01:53:03;;;;;;;5.03;4.32;;;21.40;1.00;;;;;;5176834;28;20265;-67
2023/08/22 01:55:35;;;;;;;4.78;4.18;;;21.30;1.00;;;;;;5144365;28;20041;-68
2023/08/22 01:58:10;;;;;;;6.45;4.20;;;21.30;1.00;;;;;;5173888;28;20492;-68
2023/08/22 02:00:47;;;;;;;6.53;4.70;;;21.30;1.00;;;;;;5158730;28;20775;-68
2023/08/22 02:03:22;;;;;;;6.22;4.50;;;21.20;1.00;;;;;;5189129;28;20049;-68
2023/08/22 02:05:58;;;;;;;5.93;4.75;;;21.20;1.00;;;;;;5193982;28;20041;-67
2023/08/22 02:08:30;;;;;;;4.75;4.00;;;21.20;1.00;;;;;;5180793;28;20041;-66
2023/08/22 02:11:09;;;;;;;6.00;5.00;;;21.10;1.00;;;;;;5198144;28;20045;-68
2023/08/22 02:13:49;;;;;;;7.18;4.82;;;21.10;1.00;;;;;;5182307;28;20497;-67
2023/08/22 02:16:20;;;;;;;5.20;4.10;;;21.00;1.00;;;;;;5189049;28;20049;-68
2023/08/22 02:18:55;;;;;;;4.38;3.80;;;20.90;1.00;;;;;;5194896;28;20048;-69
2023/08/22 02:21:31;;;;;;;5.85;4.57;;;20.90;1.00;;;;;;5173653;28;20056;-69
2023/08/22 02:24:05;;;;;;;5.75;4.40;;;20.90;1.00;;;;;;5199405;28;20049;-68
2023/08/22 02:26:41;;;;;;;7.72;5.13;;;20.80;1.00;;;;;;5188033;28;20038;-68
2023/08/22 02:29:18;;;;;;;5.95;4.15;;;20.80;1.00;;;;;;5166643;28;20342;-69
2023/08/22 02:31:52;;;;;;;5.55;4.38;;;20.80;1.00;;;;;;5187169;28;20037;-69
2023/08/22 02:34:25;;;;;;;5.57;4.72;;;20.70;1.00;;;;;;5187629;28;20037;-67
2023/08/22 02:36:57;;;;;;;6.95;4.78;;;20.70;16.60;;;;;;5181276;28;20356;-70
2023/08/22 02:39:31;;;;;;;6.00;4.38;;;20.70;59.30;;;;;;5185769;28;20046;-69
2023/08/22 02:42:05;;;;;;;;;;;20.70;35.30;;;;;;5178042;28;20070;-69
2023/08/22 02:44:37;;;;;;;6.53;4.85;;;20.70;14.70;;;;;;5173035;28;19921;-67
2023/08/22 02:47:09;;;;;;;8.80;5.03;;;20.70;43.90;;;;;;5173101;28;20061;-68
2023/08/22 02:49:45;;;;;;;10.65;5.35;;;20.60;43.80;;;;;;5177338;28;20045;-67
2023/08/22 02:52:18;;;;;;;6.53;4.63;;;20.60;96.40;;;;;;5197701;28;20034;-69
2023/08/22 02:54:49;;;;;;;7.68;4.93;;;20.60;94.30;;;;;;5173436;28;20257;-67
2023/08/22 02:57:23;;;;;;;7.38;5.07;;;20.50;82.40;;;;;;5191876;28;20047;-68
2023/08/22 02:59:57;;;;;;;6.82;4.72;;;20.50;96.10;;;;;;5191219;28;20032;-68
2023/08/22 03:02:29;;;;;;;7.22;5.25;;;20.40;99.70;;;;;;5188512;28;20237;-67
2023/08/22 03:05:09;;;;;;;5.75;4.43;;;20.40;97.80;;;;;;5197143;28;20451;-68
2023/08/22 03:07:43;;;;;;;5.63;4.43;;;20.40;99.90;;;;;;5195638;28;20059;-67
2023/08/22 03:10:18;;;;;;;7.85;5.47;;;20.30;99.90;;;;;;5197016;28;20029;-68
2023/08/22 03:12:52;;;;;;;5.25;4.25;;;20.40;99.90;;;;;;5174704;28;20040;-67
2023/08/22 03:15:26;;;;;;;7.43;4.88;;;20.30;60.50;;;;;;5166759;28;20124;-67
2023/08/22 03:18:00;;;;;;;6.75;4.97;;;20.30;99.90;;;;;;5166575;28;20457;-67
2023/08/22 03:20:32;;;;;;;7.68;5.07;;;20.30;99.90;;;;;;5195148;28;20041;-68
2023/08/22 03:23:05;;;;;;;8.07;4.68;;;20.30;99.90;;;;;;5185238;28;20242;-69
2023/08/22 03:25:39;;;;;;;6.90;4.60;;;20.20;99.90;;;;;;5176557;28;20658;-67
2023/08/22 03:28:14;;;;;;;6.60;4.72;;;20.20;99.90;;;;;;5197402;28;20053;-67
2023/08/22 03:30:53;;;;;;;5.07;4.18;;;20.20;99.90;;;;;;5157330;28;20045;-69
2023/08/22 03:33:25;;;;;;;6.82;5.05;;;20.20;99.90;;;;;;5197842;28;20049;-68
2023/08/22 03:35:58;;;;;;;5.65;4.97;;;20.20;99.90;;;;;;5203434;28;20021;-68
2023/08/22 03:38:32;;;;;;;6.43;5.10;;;20.20;99.90;;;;;;5216540;28;20523;-67
2023/08/22 03:41:03;;;;;;;6.95;5.07;;;20.10;99.90;;;;;;5222237;28;20028;-68
2023/08/22 03:43:35;;;;;;;5.97;4.32;;;20.20;79.10;;;;;;5186936;28;20500;-68
2023/08/22 03:46:10;;;;;;;8.50;5.38;;;20.20;99.90;;;;;;5194424;28;20046;-69
2023/08/22 03:48:46;;;;;;;6.43;5.00;;;20.20;99.90;;;;;;5192111;28;20072;-69
2023/08/22 03:51:20;;;;;;;6.22;4.80;;;20.10;99.90;;;;;;5183944;28;20048;-69
2023/08/22 03:53:53;;;;;;;8.10;5.28;;;20.20;99.90;;;;;;5195522;28;20044;-69
2023/08/22 03:56:27;;;;;;;5.57;4.35;;;20.20;99.90;;;;;;5210213;28;20040;-68
2023/08/22 03:59:01;;;;;;;5.40;4.78;;;20.20;99.90;;;;;;5170689;28;20179;-69
2023/08/22 04:01:35;;;;;;;11.23;4.53;;;20.20;99.90;;;;;;5165415;28;20045;-69
2023/08/22 04:04:14;;;;;;;5.93;4.60;;;20.20;99.90;;;;;;5197025;28;20044;-69
2023/08/22 04:06:46;;;;;;;5.05;4.18;;;20.20;99.90;;;;;;5205195;28;20041;-69
2023/08/22 04:09:20;;;;;;;10.13;5.65;;;20.20;99.90;;;;;;5168279;28;20038;-69
2023/08/22 04:11:56;;;;;;;9.10;6.13;;;20.20;99.90;;;;;;5177071;28;20442;-69
2023/08/22 04:14:28;;;;;;;8.27;4.80;;;20.30;99.90;;;;;;5180874;28;20047;-68
2023/08/22 04:17:02;;;;;;;6.40;4.70;;;20.30;99.90;;;;;;5195376;28;20367;-68
2023/08/22 04:19:34;;;;;;;;;;;20.20;99.90;;;;;;5196581;28;20045;-68
2023/08/22 04:22:08;;;;;;;9.13;5.00;;;20.30;99.90;;;;;;5187114;28;19915;-68
2023/08/22 04:24:42;;;;;;;5.80;4.78;;;20.40;77.00;;;;;;5194144;28;20034;-69
2023/08/22 04:27:14;;;;;;;7.85;4.57;;;20.50;1.00;;;;;;5209394;28;20056;-69
2023/08/22 04:29:48;;;;;;;9.18;4.47;;;20.60;1.00;;;;;;5225295;28;20241;-69
2023/08/22 04:32:27;;;;;;;;;;;20.60;1.00;;;;;;5216642;28;20033;-69
2023/08/22 04:35:00;;;;;;;5.53;4.03;;;20.80;1.00;;;;;;5171212;28;19918;-69
2023/08/22 04:37:33;;;;;;;5.32;4.22;;;20.90;1.00;;;;;;5205515;28;20044;-69
2023/08/22 04:40:05;;;;;;;10.48;5.38;;;21.10;1.00;;;;;;5219863;28;20451;-69
2023/08/22 04:42:37;;;;;;;5.13;4.18;;;21.30;1.00;;;;;;5158145;28;20045;-69
2023/08/22 04:45:09;;;;;;;5.03;4.25;;;21.40;1.00;;;;;;5177835;28;20042;-68
2023/08/22 04:47:40;;;;;;;6.57;5.10;;;21.50;1.00;;;;;;5168758;28;20033;-68
2023/08/22 04:50:12;;;;;;;7.40;4.90;;;21.60;1.00;;;;;;5197138;28;20512;-68
2023/08/22 04:52:44;;;;;;;5.72;3.92;;;21.70;1.00;;;;;;5193693;28;20030;-68
2023/08/22 04:55:15;;;;;;;8.20;4.50;;;21.90;1.00;;;;;;5196719;28;20035;-70
2023/08/22 04:57:47;;;;;;;6.75;4.45;;;22.10;1.00;;;;;;5177777;28;20034;-70
2023/08/22 05:00:18;;;;;;;4.35;3.75;;;22.20;1.00;;;;;;5164742;28;20053;-69
2023/08/22 05:02:51;;;;;;;5.45;4.45;;;22.50;1.00;;;;;;5182147;28;20060;-69
2023/08/22 05:05:26;;;;;;;8.63;4.05;;;22.90;1.00;;;;;;5177980;28;20049;-69
2023/08/22 05:08:02;;;;;;;7.72;4.10;;;23.30;1.00;;;;;;5202554;28;20620;-69
2023/08/22 05:10:33;;;;;;;5.95;4.30;;;23.60;99.90;;;;;;5166312;28;20057;-69
2023/08/22 05:13:08;;;;;;;5.63;4.25;;;23.90;99.90;;;;;;5179237;28;20041;-70
2023/08/22 05:15:43;;;;;;;6.10;4.35;;;24.30;99.90;;;;;;5172154;28;20048;-69
2023/08/22 05:18:17;;;;;;;4.78;3.92;;;24.60;1.00;;;;;;5200367;28;20041;-71
2023/08/22 05:20:53;;;;;;;7.35;4.47;;;25.00;1.00;;;;;;5178763;28;20048;-69
2023/08/22 05:23:27;;;;;;;12.88;4.25;;;25.30;99.90;;;;;;5165495;28;20041;-69
2023/08/22 05:25:59;;;;;;;5.28;4.43;;;25.40;99.90;;;;;;5192850;28;20044;-69
2023/08/22 05:28:30;;;;;;;6.95;4.97;;;25.60;99.90;;;;;;5165420;28;20045;-69
2023/08/22 05:31:06;;;;;;;4.85;4.00;;;25.80;99.90;;;;;;5218089;28;20033;-69
2023/08/22 05:33:40;;;;;;;5.18;3.80;;;25.90;99.90;;;;;;5196819;28;20048;-69
2023/08/22 05:36:15;;;;;;;9.88;5.00;;;25.90;1.00;;;;;;5216259;28;20052;-70
2023/08/22 05:38:47;;;;;;;10.70;5.68;;;26.10;1.00;;;;;;5204008;28;20055;-69
2023/08/22 05:41:21;;;;;;;7.63;5.25;;;26.20;1.00;;;;;;5197943;28;20043;-69
2023/08/22 05:43:55;;;;;;;8.93;4.35;;;26.40;1.00;;;;;;5180355;28;20493;-69
2023/08/22 05:46:27;;;;;;;7.38;4.50;;;26.50;1.00;;;;;;5190751;28;20041;-68
2023/08/22 05:48:59;;;;;;;8.63;4.70;;;26.60;1.00;;;;;;5170247;28;20049;-69
2023/08/22 05:51:33;;;;;;;7.20;4.47;;;26.80;1.00;;;;;;5176101;28;20041;-69
2023/08/22 05:54:04;;;;;;;4.65;4.15;;;27.00;1.00;;;;;;5198634;28;20489;-69
2023/08/22 05:56:36;;;;;;;7.95;4.10;;;27.20;1.00;;;;;;5208180;28;20403;-69
2023/08/22 05:59:07;;;;;;;6.38;4.45;;;27.30;1.00;;;;;;5198720;28;20029;-70
2023/08/22 06:01:41;;;;;;;5.35;4.40;;;27.60;1.00;;;;;;5193118;28;20037;-69
2023/08/22 06:04:15;;;;;;;7.53;4.55;;;27.80;1.00;;;;;;5199510;28;20338;-69
2023/08/22 06:06:47;;;;;;;6.30;4.45;;;28.10;99.90;;;;;;5156134;28;20037;-71
2023/08/22 06:09:20;;;;;;;6.07;4.68;;;28.20;99.90;;;;;;5170991;28;20049;-70
2023/08/22 06:11:55;;;;;;;7.18;4.32;;;28.60;99.90;;;;;;5174590;28;20043;-70
2023/08/22 06:14:30;;;;;;;9.50;4.45;;;28.80;99.90;;;;;;5194444;28;20043;-69
2023/08/22 06:17:10;;;;;;;6.00;4.57;;;29.10;99.90;;;;;;5213660;28;20029;-69
2023/08/22 06:19:48;;;;;;;7.75;4.85;;;29.40;58.20;;;;;;5196338;28;20033;-70
2023/08/22 06:22:22;;;;;;;7.38;4.40;;;29.60;1.00;;;;;;5193812;28;20045;-70
2023/08/22 06:24:57;;;;;;;5.47;4.22;;;29.60;99.90;;;;;;5192213;28;20051;-70
2023/08/22 06:27:34;;;;;;;4.85;4.10;;;29.70;1.00;;;;;;5183075;28;20040;-69
2023/08/22 06:30:12;;;;;;;5.57;4.45;;;29.70;1.00;;;;;;5202341;28;20360;-69
2023/08/22 06:32:47;;;;;;;8.02;4.78;;;29.70;99.90;;;;;;5204717;28;20495;-70
2023/08/22 06:35:19;;;;;;;7.85;5.03;;;29.80;99.90;;;;;;5169924;28;20052;-70
2023/08/22 06:37:53;;;;;;;6.82;5.05;;;29.70;1.00;;;;;;5201180;28;20053;-69
2023/08/22 06:40:25;;;;;;;7.18;4.70;;;29.60;1.00;;;;;;5196946;28;20051;-70
2023/08/22 06:42:59;;;;;;;6.90;4.40;;;29.60;99.90;;;;;;5219760;28;20045;-67
2023/08/22 06:45:31;;;;;;;8.07;4.88;;;30.00;1.00;;;;;;5187126;28;20037;-70
2023/08/22 06:48:04;;;;;;;6.05;4.32;;;30.40;1.00;;;;;;5202979;28;20040;-69
2023/08/22 06:50:35;;;;;;;8.10;4.72;;;30.60;1.00;;;;;;5212811;28;20037;-70
2023/08/22 06:53:10;;;;;;;7.72;4.50;;;30.90;99.90;;;;;;5193630;28;20341;-69
2023/08/22 06:55:45;;;;;;;5.03;4.03;;;30.80;99.90;;;;;;5178116;28;20318;-69
2023/08/22 06:58:17;;;;;;;6.05;4.13;;;31.20;99.90;;;;;;5177060;28;20287;-68
2023/08/22 07:00:48;;;;;;;5.18;4.18;;;31.50;91.50;;;;;;5195310;28;20025;-69
2023/08/22 07:03:22;;;;;;;4.82;4.05;;;31.50;99.90;;;;;;5194332;28;20494;-69
2023/08/22 07:05:54;;;;;;;6.05;4.30;;;31.60;8.00;;;;;;5205287;28;20362;-68
2023/08/22 07:08:26;;;;;;;5.13;4.20;;;31.70;99.90;;;;;;5177275;28;20242;-70
2023/08/22 07:11:03;;;;;;;6.30;4.63;;;31.80;1.00;;;;;;5201837;28;20217;-68
2023/08/22 07:13:36;;;;;;;4.32;3.92;;;32.00;99.90;;;;;;5212110;28;20037;-69
2023/08/22 07:16:10;;;;;;;6.40;4.82;;;32.00;1.00;;;;;;5199353;28;20218;-69
2023/08/22 07:18:42;;;;;;;5.40;4.82;;;32.20;99.90;;;;;;5174035;28;20389;-69
2023/08/22 07:21:14;;;;;;;6.78;4.22;;;31.70;1.00;;;;;;5185093;28;20259;-67
2023/08/22 07:23:45;;;;;;;4.60;4.05;;;31.70;19.90;;;;;;5196907;28;20078;-68
2023/08/22 07:26:19;;;;;;;8.35;4.65;;;31.90;60.50;;;;;;5199174;28;20029;-70
2023/08/22 07:28:51;;;;;;;6.20;4.88;;;32.30;99.90;;;;;;5198412;28;20029;-71
2023/08/22 07:31:28;;;;;;;8.15;4.80;;;32.10;99.90;;;;;;5189849;28;20048;-68
2023/08/22 07:34:03;;;;;;;6.07;4.57;;;31.70;1.00;;;;;;5216364;28;20040;-68
2023/08/22 07:36:40;;;;;;;5.97;4.72;;;32.00;99.90;;;;;;5223090;28;20302;-69
2023/08/22 07:39:12;;;;;;;6.38;4.15;;;32.10;99.90;;;;;;5219341;28;20369;-69
2023/08/22 07:41:50;;;;;;;5.82;4.68;;;32.60;1.00;;;;;;5217169;28;20041;-69
2023/08/22 07:44:28;;;;;;;5.82;4.25;;;32.60;99.90;;;;;;5211474;28;20029;-69
2023/08/22 07:47:00;;;;;;;5.22;4.43;;;32.40;99.90;;;;;;5196485;28;20233;-69
2023/08/22 07:49:34;;;;;;;5.82;4.78;;;32.70;99.90;;;;;;5208289;28;20034;-70
2023/08/22 07:52:08;;;;;;;5.50;4.28;;;32.10;1.00;;;;;;5200857;28;20029;-69
2023/08/22 07:54:42;;;;;;;6.93;4.43;;;32.10;1.00;;;;;;5195704;28;20033;-69
2023/08/22 07:57:14;;;;;;;;;;;31.80;1.00;;;;;;5198388;28;20025;-68
2023/08/22 07:59:52;;;;;;;7.00;4.75;;;32.10;1.00;;;;;;5195608;28;20231;-70
2023/08/22 08:02:23;;;;;;;6.30;4.97;;;32.90;1.00;;;;;;5213877;28;20048;-70
2023/08/22 08:04:58;;;;;;;7.40;4.72;;;33.40;1.00;;;;;;5200432;28;20037;-69
2023/08/22 08:07:30;;;;;;;6.40;5.03;;;33.20;1.00;;;;;;5175970;28;20033;-68
2023/08/22 08:10:09;;;;;;;9.65;5.25;;;32.30;3.10;;;;;;5198583;28;20072;-70
2023/08/22 08:12:42;;;;;;;7.60;4.70;;;32.60;99.90;;;;;;5210116;28;20017;-70
2023/08/22 08:15:14;;;;;;;6.15;4.82;;;32.70;1.00;;;;;;5192270;28;20061;-69
2023/08/22 08:17:47;;;;;;;6.78;4.95;;;33.30;1.00;;;;;;5182735;28;20071;-70
2023/08/22 08:20:24;;;;;;;5.97;4.90;;;32.80;99.90;;;;;;5192523;28;20234;-69
2023/08/22 08:22:57;;;;;;;8.43;5.15;;;33.00;99.90;;;;;;5184996;28;20037;-69
2023/08/22 08:25:36;;;;;;;5.72;4.15;;;33.50;1.00;;;;;;5193445;28;20040;-69
2023/08/22 08:28:07;;;;;;;7.20;4.28;;;34.00;1.00;;;;;;5184672;28;20045;-71
2023/08/22 08:30:39;;;;;;;6.93;5.53;;;34.10;1.00;;;;;;5190469;28;20338;-69
2023/08/22 08:33:11;;;;;;;5.80;5.20;;;34.10;40.80;;;;;;5190289;28;20463;-69
2023/08/22 08:35:42;;;;;;;8.70;4.90;;;34.00;1.00;;;;;;5210608;28;20029;-69
2023/08/22 08:38:14;;;;;;;6.40;5.18;;;34.20;1.00;;;;;;5196307;28;20137;-70
2023/08/22 08:40:51;;;;;;;8.60;5.75;;;34.20;1.00;;;;;;5194842;28;20045;-69
2023/08/22 08:43:30;;;;;;;7.68;5.13;;;34.50;1.00;;;;;;5185712;28;20039;-70
2023/08/22 08:46:09;;;;;;;8.40;5.97;;;34.70;24.30;;;;;;5192247;28;20029;-69
2023/08/22 08:48:42;;;;;;;9.13;5.70;;;34.20;1.00;;;;;;5201615;28;20040;-71
2023/08/22 08:51:16;;;;;;;8.47;5.53;;;34.00;99.90;;;;;;5197538;28;20283;-70
2023/08/22 08:53:50;;;;;;;8.07;5.28;;;34.20;99.90;;;;;;5157812;28;20038;-69
2023/08/22 08:56:24;;;;;;;9.38;5.55;;;34.60;1.00;;;;;;5186137;28;20030;-71
2023/08/22 08:58:55;;;;;;;10.32;5.28;;;34.50;1.00;;;;;;5198519;28;20033;-71
2023/08/22 09:01:29;;;;;;;7.10;5.70;;;34.80;99.90;;;;;;5194589;28;20045;-69
2023/08/22 09:04:01;;;;;;;;;;;34.60;99.90;;;;;;5181704;28;20357;-70
2023/08/22 09:06:32;;;;;;;11.07;5.97;;;34.60;99.90;;;;;;5194468;28;20114;-70
2023/08/22 09:09:08;;;;;;;6.45;5.50;;;34.70;99.90;;;;;;5211978;28;20227;-70
2023/08/22 09:11:56;;;;;;;7.70;6.05;;;35.00;99.90;;;;;;5166864;28;20041;-69
2023/08/22 09:14:30;;;;;;;8.23;5.60;;;35.60;99.90;;;;;;5200532;28;20035;-70
2023/08/22 09:17:06;;;;;;;7.32;5.70;;;35.80;99.90;;;;;;5198033;28;20071;-69
2023/08/22 09:19:42;;;;;;;8.20;5.35;;;35.50;87.10;;;;;;5169837;28;20057;-70
2023/08/22 09:22:17;;;;;;;6.88;5.72;;;35.40;1.00;;;;;;5187481;28;20360;-70
2023/08/22 09:24:54;;;;;;;6.55;5.60;;;35.70;99.90;;;;;;5207932;28;20045;-70
2023/08/22 09:27:30;;;;;;;7.03;5.38;;;35.90;23.90;;;;;;5193668;28;20045;-69
2023/08/22 09:30:08;;;;;;;7.32;5.70;;;36.10;1.00;;;;;;5199396;28;20250;-71
2023/08/22 09:32:40;;;;;;;8.45;5.72;;;36.30;99.90;;;;;;5189386;28;20046;-70
2023/08/22 09:35:20;;;;;;;6.75;5.05;;;36.40;99.90;;;;;;5216245;28;20029;-70
2023/08/22 09:37:54;;;;;;;6.80;5.80;;;36.10;1.00;;;;;;5201007;28;20038;-71
2023/08/22 09:40:28;;;;;;;9.43;5.57;;;35.70;99.90;;;;;;5205012;28;20217;-70
2023/08/22 09:43:01;;;;;;;7.40;5.40;;;36.10;77.40;;;;;;5220763;28;20050;-70
2023/08/22 09:45:33;;;;;;;6.90;4.73;;;36.30;1.00;;;;;;5219565;28;20036;-70
2023/08/22 09:48:06;;;;;;;6.10;5.35;;;36.30;99.90;;;;;;5214021;28;20267;-70
2023/08/22 09:50:44;;;;;;;9.20;5.20;;;36.20;99.90;;;;;;5190522;28;20068;-71
2023/08/22 09:53:19;;;;;;;6.68;6.07;;;36.30;1.00;;;;;;5192850;28;20060;-70
2023/08/22 09:55:53;;;;;;;8.60;4.90;;;36.50;1.00;;;;;;5210861;28;20052;-71
2023/08/22 09:58:28;;;;;;;9.00;5.22;;;37.00;7.50;;;;;;5193075;28;20045;-70
2023/08/22 10:01:05;;;;;;;7.93;4.78;;;37.40;99.90;;;;;;5196846;28;20544;-69
2023/08/22 10:03:40;;;;;;;8.20;5.65;;;37.20;60.70;;;;;;5177627;28;20056;-72
2023/08/22 10:06:14;;;;;;;5.53;4.97;;;37.10;99.90;;;;;;5186683;28;20315;-70
2023/08/22 10:09:00;;;;;;;9.20;4.85;;;37.30;1.00;;;;;;5199706;28;20233;-71
2023/08/22 10:11:31;;;;;;;6.43;5.15;;;37.50;99.90;;;;;;5206638;28;20323;-70
2023/08/22 10:14:05;;;;;;;4.80;4.30;;;37.80;1.00;;;;;;5224457;28;20467;-70
2023/08/22 10:16:40;;;;;;;;;;;38.50;1.00;;;;;;5215725;28;20029;-70
2023/08/22 10:19:14;;;;;;;5.60;4.93;;;38.90;1.00;;;;;;5215761;28;19919;-69
2023/08/22 10:21:48;;;;;;;6.13;4.97;;;38.80;99.90;;;;;;5182924;28;20029;-70
2023/08/22 10:24:30;;;;;;;6.00;5.40;;;38.50;99.90;;;;;;5185321;28;20390;-70
2023/08/22 10:27:16;;;;;;;7.38;4.72;;;38.20;99.90;;;;;;5187383;28;20033;-69
2023/08/22 10:30:18;;;;;;;6.05;5.43;;;38.30;99.90;;;;;;5173134;28;20491;-70
2023/08/22 10:33:09;;;;;;;14.55;5.47;;;38.80;99.90;;;;;;5187549;28;20344;-71
2023/08/22 10:35:41;;;;;;;5.40;4.90;;;38.90;4.30;;;;;;5189278;28;20034;-71
2023/08/22 10:38:20;;;;;;;10.68;5.93;;;39.30;1.00;;;;;;5202383;28;20233;-72
2023/08/22 10:41:00;;;;;;;5.03;4.53;;;39.90;8.80;;;;;;5200003;28;20043;-70
2023/08/22 10:43:43;;;;;;;9.75;5.18;;;40.80;1.00;;;;;;5178326;28;20288;-71
2023/08/22 10:46:20;;;;;;;4.72;4.22;;;41.70;1.00;;;;;;5220428;28;20266;-69
2023/08/22 10:49:02;;;;;;;5.03;4.25;;;42.10;42.00;;;;;;5228163;28;20239;-70
2023/08/22 10:51:48;;;;;;;5.70;4.70;;;41.90;1.00;;;;;;5189993;28;20190;-70
2023/08/22 10:54:19;;;;;;;5.78;4.63;;;42.00;1.00;;;;;;5203124;28;20230;-70
2023/08/22 10:57:18;;;;;;;5.13;4.63;;;43.00;99.90;;;;;;5202241;28;20263;-70
2023/08/22 10:59:59;;;;;;;6.63;4.40;;;43.00;99.90;;;;;;5192237;28;20514;-70
2023/08/22 11:02:35;;;;;;;6.95;4.57;;;43.00;99.90;;;;;;5208974;28;20048;-69
2023/08/22 11:05:17;;;;;;;6.18;4.53;;;42.60;99.90;;;;;;5203298;28;20032;-70
2023/08/22 11:07:51;;;;;;;5.93;4.40;;;43.40;99.90;;;;;;5199331;28;20038;-69
2023/08/22 11:10:27;;;;;;;4.80;4.40;;;43.70;1.00;;;;;;5212284;28;20048;-69
2023/08/22 11:13:09;;;;;;;6.85;4.93;;;44.30;99.90;;;;;;5203643;28;20311;-71
2023/08/22 11:15:44;;;;;;;5.10;4.45;;;44.60;99.90;;;;;;5195317;28;20044;-70
2023/08/22 11:18:22;;;;;;;6.60;4.95;;;43.70;1.00;;;;;;5174646;28;20056;-69
2023/08/22 11:20:59;;;;;;;10.32;5.07;;;44.10;1.00;;;;;;5200409;28;20033;-70
2023/08/22 11:23:37;;;;;;;4.38;3.97;;;44.00;1.00;;;;;;5201870;28;20029;-70
2023/08/22 11:26:09;;;;;;;6.78;4.90;;;44.60;76.40;;;;;;5169961;28;20049;-70
2023/08/22 11:28:44;;;;;;;7.93;4.38;;;44.70;1.00;;;;;;5214327;28;20037;-72
2023/08/22 11:31:18;;;;;;;10.02;4.80;;;44.90;1.00;;;;;;5217532;28;20222;-70
2023/08/22 11:33:50;;;;;;;7.25;4.60;;;45.50;1.00;;;;;;5187134;28;20071;-70
2023/08/22 11:36:24;;;;;;;13.32;6.07;;;45.10;1.00;;;;;;5195133;28;20093;-69
2023/08/22 11:38:58;;;;;;;4.53;4.13;;;45.10;1.00;;;;;;5203553;28;20067;-70
2023/08/22 11:41:30;;;;;;;5.13;4.63;;;44.50;1.00;;;;;;5209505;28;20044;-71
2023/08/22 11:44:04;;;;;;;4.65;4.20;;;44.20;1.00;;;;;;5207659;28;20343;-70
2023/08/22 11:46:40;;;;;;;5.10;4.20;;;43.60;1.00;;;;;;5207080;28;20037;-70
2023/08/22 11:49:12;;;;;;;4.40;4.00;;;44.90;50.60;;;;;;5214206;28;20245;-70
2023/08/22 11:51:51;;;;;;;6.53;4.35;;;45.10;99.90;;;;;;5205229;28;20198;-71
2023/08/22 11:54:24;;;;;;;7.40;4.65;;;45.10;99.90;;;;;;5195534;28;20338;-70
2023/08/22 11:57:00;;;;;;;7.50;4.63;;;45.00;1.00;;;;;;5176305;28;20063;-70
2023/08/22 11:59:31;;;;;;;7.47;4.90;;;44.50;99.90;;;;;;5217498;28;20294;-69
2023/08/22 12:02:03;;;;;;;7.78;4.45;;;44.40;99.90;;;;;;5186780;28;20364;-70
2023/08/22 12:04:44;;;;;;;6.45;4.35;;;43.40;99.90;;;;;;5214625;28;20403;-71
2023/08/22 12:07:21;;;;;;;6.30;4.05;;;44.10;49.20;;;;;;5223228;28;20033;-70
2023/08/22 12:10:07;;;;;;;4.88;4.40;;;44.10;99.90;;;;;;5195696;28;20030;-70
2023/08/22 12:12:38;;;;;;;5.93;4.70;;;44.80;1.00;;;;;;5196283;28;20034;-70
2023/08/22 12:15:10;;;;;;;5.35;4.38;;;45.20;1.00;;;;;;5197682;28;20093;-71
2023/08/22 12:17:43;;;;;;;4.97;4.38;;;45.10;1.00;;;;;;5202921;28;20266;-70
2023/08/22 12:20:16;;;;;;;6.82;4.22;;;45.20;1.00;;;;;;5181982;28;20048;-70
2023/08/22 12:22:48;;;;;;;4.15;3.75;;;44.50;1.00;;;;;;5209535;28;20041;-69
2023/08/22 12:25:20;;;;;;;4.25;3.85;;;44.40;1.00;;;;;;5180774;28;20075;-70
2023/08/22 12:27:51;;;;;;;8.68;4.28;;;45.70;1.00;;;;;;5222333;28;20041;-70
2023/08/22 12:30:28;;;;;;;4.57;4.18;;;45.80;1.00;;;;;;5191251;28;20605;-69
2023/08/22 12:33:06;;;;;;;5.43;4.60;;;45.20;1.00;;;;;;5193058;28;20293;-70
2023/08/22 12:35:41;;;;;;;4.90;4.40;;;44.10;1.00;;;;;;5196247;28;20052;-70
2023/08/22 12:38:13;;;;;;;4.30;4.00;;;43.70;1.00;;;;;;5186917;28;20033;-70
2023/08/22 12:40:47;;;;;;;4.45;4.07;;;43.80;1.00;;;;;;5204407;28;20041;-69
2023/08/22 12:43:20;;;;;;;4.90;4.38;;;45.30;1.00;;;;;;5201459;28;20032;-69
2023/08/22 12:45:53;;;;;;;6.18;4.32;;;45.80;1.00;;;;;;5216620;28;20046;-70
2023/08/22 12:48:24;;;;;;;5.32;3.92;;;45.40;1.00;;;;;;5175665;28;20044;-70
2023/08/22 12:51:01;;;;;;;4.65;3.58;;;45.80;1.00;;;;;;5172573;28;20334;-69
2023/08/22 12:53:36;;;;;;;4.25;3.92;;;45.50;1.00;;;;;;5201534;28;20056;-69
2023/08/22 12:56:07;;;;;;;4.93;4.43;;;45.40;1.00;;;;;;5197785;28;20201;-70
2023/08/22 12:58:39;;;;;;;6.97;4.40;;;45.40;1.00;;;;;;5202956;28;20047;-71
2023/08/22 13:01:13;;;;;;;4.57;4.10;;;45.60;1.00;;;;;;5198356;28;20049;-70
2023/08/22 13:03:51;;;;;;;8.35;4.47;;;46.60;1.00;;;;;;5216326;28;20055;-70
2023/08/22 13:06:23;;;;;;;4.45;4.00;;;47.20;1.00;;;;;;5202687;28;20041;-71
2023/08/22 13:08:56;;;;;;;4.38;4.00;;;47.90;1.00;;;;;;5192924;28;20056;-69
2023/08/22 13:11:27;;;;;;;5.15;4.20;;;47.90;1.00;;;;;;5194912;28;20417;-69
2023/08/22 13:14:02;;;;;;;5.32;4.15;;;47.00;1.00;;;;;;5217832;28;20029;-69
2023/08/22 13:16:34;;;;;;;5.75;4.00;;;48.00;1.00;;;;;;5211501;28;20025;-68
2023/08/22 13:19:05;;;;;;;4.87;4.40;;;47.70;1.00;;;;;;5199166;28;20478;-69
2023/08/22 13:21:37;;;;;;;5.43;4.95;;;46.60;1.00;;;;;;5178672;28;20524;-71
2023/08/22 13:24:11;;;;;;;5.80;4.47;;;45.80;1.00;;;;;;5201210;28;20041;-70
2023/08/22 13:26:45;;;;;;;5.57;4.20;;;45.80;1.00;;;;;;5213676;28;20033;-69
2023/08/22 13:29:20;;;;;;;7.78;4.45;;;46.00;1.00;;;;;;5199787;28;20039;-69
2023/08/22 13:31:52;;;;;;;5.78;4.88;;;45.30;1.00;;;;;;5198106;28;20279;-70